createdAt,value
2022-09-07T00:01:06.263Z,101687.44
2022-09-07T00:03:34.489Z,101693.78
2022-09-07T00:06:08.715Z,101687.00
2022-09-07T00:08:36.350Z,101694.22
2022-09-07T00:11:07.925Z,101695.56
2022-09-07T00:13:38.042Z,101697.22
2022-09-07T00:16:08.281Z,101705.81
2022-09-07T00:18:36.037Z,101712.16
2022-09-07T00:21:07.488Z,101709.28
2022-09-07T00:23:36.624Z,101709.19
2022-09-07T00:26:11.126Z,101713.28
2022-09-07T00:28:38.849Z,101706.22
2022-09-07T00:31:12.601Z,101704.31
2022-09-07T00:33:41.543Z,101712.28
2022-09-07T00:36:09.140Z,101712.84
2022-09-07T00:38:37.355Z,101713.41
2022-09-07T00:41:08.321Z,101714.00
2022-09-07T00:43:38.440Z,101715.19
2022-09-07T00:46:12.069Z,101719.06
2022-09-07T00:49:08.398Z,101702.69
2022-09-07T00:51:48.366Z,101714.66
2022-09-07T00:54:21.890Z,101716.66
2022-09-07T00:56:53.107Z,101716.84
2022-09-07T00:59:24.871Z,101717.81
2022-09-07T01:01:52.805Z,101722.69
2022-09-07T01:04:22.422Z,101718.13
2022-09-07T01:06:50.458Z,101715.16
2022-09-07T01:09:22.777Z,101719.97
2022-09-07T01:11:51.876Z,101724.88
2022-09-07T01:14:24.379Z,101737.09
2022-09-07T01:17:19.295Z,101734.53
2022-09-07T01:20:17.410Z,101729.13
2022-09-07T01:22:51.049Z,101728.59
2022-09-07T01:25:21.370Z,101727.47
2022-09-07T01:28:11.510Z,101735.03
2022-09-07T01:30:45.910Z,101738.22
2022-09-07T01:33:23.621Z,101733.25
2022-09-07T01:36:17.998Z,101733.25
2022-09-07T01:38:54.518Z,101730.34
2022-09-07T01:41:29.493Z,101735.38
2022-09-07T01:44:07.947Z,101731.44
2022-09-07T01:46:44.002Z,101734.81
2022-09-07T01:49:17.315Z,101740.13
2022-09-07T01:51:48.898Z,101741.97
2022-09-07T01:54:26.002Z,101741.88
2022-09-07T01:56:58.176Z,101746.84
2022-09-07T01:59:33.591Z,101730.28
2022-09-07T02:02:18.348Z,101747.91
2022-09-07T02:05:08.245Z,101753.25
2022-09-07T02:07:44.674Z,101755.63
2022-09-07T02:10:34.250Z,101756.00
2022-09-07T02:13:12.738Z,101761.66
2022-09-07T02:16:02.562Z,101760.03
2022-09-07T02:18:41.850Z,101755.91
2022-09-07T02:21:10.764Z,101763.06
2022-09-07T02:23:57.273Z,101749.75
2022-09-07T02:26:29.807Z,101763.31
2022-09-07T02:28:57.875Z,101761.31
2022-09-07T02:31:25.500Z,101758.81
2022-09-07T02:33:53.152Z,101769.31
2022-09-07T02:36:24.784Z,101766.00
2022-09-07T02:38:52.919Z,101765.00
2022-09-07T02:41:29.692Z,101771.81
2022-09-07T02:43:57.669Z,101760.66
2022-09-07T02:46:53.104Z,101767.41
2022-09-07T02:49:52.617Z,101771.28
2022-09-07T02:53:09.716Z,101762.03
2022-09-07T02:56:01.221Z,101758.78
2022-09-07T02:58:53.930Z,101764.38
2022-09-07T03:01:24.366Z,101770.53
2022-09-07T03:04:08.536Z,101772.78
2022-09-07T03:06:41.182Z,101770.81
2022-09-07T03:09:15.549Z,101772.44
2022-09-07T03:11:43.390Z,101783.09
2022-09-07T03:14:20.304Z,101773.09
2022-09-07T03:16:50.772Z,101773.81
2022-09-07T03:19:19.088Z,101770.88
2022-09-07T03:21:46.725Z,101774.41
2022-09-07T03:24:14.237Z,101776.88
2022-09-07T03:26:45.292Z,101769.34
2022-09-07T03:29:13.013Z,101778.09
2022-09-07T03:31:40.791Z,101781.91
2022-09-07T03:34:08.724Z,101789.72
2022-09-07T03:36:36.347Z,101790.13
2022-09-07T03:39:04.674Z,101794.16
2022-09-07T03:41:32.153Z,101803.56
2022-09-07T03:44:05.339Z,101792.53
2022-09-07T03:46:33.560Z,101807.25
2022-09-07T03:49:01.093Z,101802.66
2022-09-07T03:51:28.740Z,101809.72
2022-09-07T03:53:56.391Z,101810.50
2022-09-07T03:56:26.871Z,101804.72
2022-09-07T03:58:58.371Z,101811.66
2022-09-07T04:01:27.374Z,101810.75
2022-09-07T04:04:02.187Z,101813.59
2022-09-07T04:06:32.746Z,101812.19
2022-09-07T04:09:06.262Z,101811.53
2022-09-07T04:11:37.061Z,101809.75
2022-09-07T04:14:04.741Z,101804.75
2022-09-07T04:16:32.320Z,101809.28
2022-09-07T04:19:00.278Z,101811.16
2022-09-07T04:21:29.990Z,101810.38
2022-09-07T04:23:58.296Z,101814.47
2022-09-07T04:26:34.102Z,101800.63
2022-09-07T04:29:03.106Z,101804.94
2022-09-07T04:31:33.004Z,101808.56
2022-09-07T04:34:00.671Z,101798.28
2022-09-07T04:36:28.542Z,101807.56
2022-09-07T04:39:01.538Z,101813.66
2022-09-07T04:41:31.506Z,101809.38
2022-09-07T04:44:02.877Z,101807.78
2022-09-07T04:46:36.213Z,101817.63
2022-09-07T04:49:09.669Z,101817.78
2022-09-07T04:51:38.869Z,101806.97
2022-09-07T04:54:07.303Z,101811.06
2022-09-07T04:56:34.927Z,101806.22
2022-09-07T04:59:03.510Z,101812.22
2022-09-07T05:01:31.197Z,101811.41
2022-09-07T05:04:01.672Z,101808.69
2022-09-07T05:06:29.743Z,101811.69
2022-09-07T05:08:59.209Z,101812.22
2022-09-07T05:11:30.246Z,101819.84
2022-09-07T05:14:02.619Z,101811.69
2022-09-07T05:16:31.285Z,101806.97
2022-09-07T05:19:01.779Z,101813.50
2022-09-07T05:21:32.003Z,101813.09
2022-09-07T05:24:01.091Z,101812.69
2022-09-07T05:26:30.592Z,101815.81
2022-09-07T05:31:50.209Z,101819.75
2022-09-07T05:36:55.815Z,101827.13
2022-09-07T05:39:23.739Z,101824.47
2022-09-07T05:41:51.279Z,101823.50
2022-09-07T05:47:07.317Z,101831.44
2022-09-07T05:49:34.942Z,101837.59
2022-09-07T05:52:04.969Z,101833.53
2022-09-07T05:54:35.913Z,101837.69
2022-09-07T05:57:06.063Z,101843.84
2022-09-07T05:59:34.825Z,101841.22
2022-09-07T06:02:03.317Z,101840.28
2022-09-07T06:04:33.382Z,101843.31
2022-09-07T06:07:22.116Z,101846.81
2022-09-07T06:12:51.887Z,101852.75
2022-09-07T06:15:21.547Z,101856.59
2022-09-07T06:17:51.110Z,101859.72
2022-09-07T06:20:23.559Z,101858.88
2022-09-07T06:22:57.632Z,101855.81
2022-09-07T06:25:26.511Z,101861.97
2022-09-07T06:27:55.183Z,101863.38
2022-09-07T06:30:23.744Z,101866.16
2022-09-07T06:32:52.588Z,101880.41
2022-09-07T06:35:23.604Z,101874.00
2022-09-07T06:37:53.532Z,101880.97
2022-09-07T06:40:23.327Z,101873.56
2022-09-07T06:42:51.895Z,101885.78
2022-09-07T06:45:20.887Z,101880.34
2022-09-07T06:47:50.584Z,101875.03
2022-09-07T06:50:19.244Z,101882.91
2022-09-07T06:55:45.868Z,101884.19
2022-09-07T06:58:14.694Z,101886.50
2022-09-07T07:00:46.603Z,101879.22
2022-09-07T07:03:17.085Z,101880.41
2022-09-07T07:05:57.045Z,101884.78
2022-09-07T07:08:27.059Z,101885.53
2022-09-07T07:10:55.876Z,101883.28
2022-09-07T07:13:24.958Z,101883.69
2022-09-07T07:15:54.326Z,101890.41
2022-09-07T07:18:23.002Z,101890.31
2022-09-07T07:20:54.144Z,101887.81
2022-09-07T07:23:29.204Z,101880.44
2022-09-07T07:26:03.244Z,101892.63
2022-09-07T07:31:27.915Z,101883.56
2022-09-07T07:33:57.110Z,101884.00
2022-09-07T07:36:28.376Z,101889.78
2022-09-07T07:44:21.197Z,101885.91
2022-09-07T07:46:50.768Z,101880.00
2022-09-07T07:49:20.507Z,101870.19
2022-09-07T07:54:43.487Z,101871.88
2022-09-07T07:57:12.184Z,101870.78
2022-09-07T07:59:40.660Z,101855.22
2022-09-07T08:02:14.792Z,101874.81
2022-09-07T08:04:47.192Z,101873.81
2022-09-07T08:07:16.234Z,101871.78
2022-09-07T08:09:49.760Z,101856.00
2022-09-07T08:12:21.140Z,101864.53
2022-09-07T08:14:49.000Z,101863.50
2022-09-07T08:17:18.023Z,101858.31
2022-09-07T08:19:47.858Z,101845.75
2022-09-07T08:22:17.550Z,101852.28
2022-09-07T08:24:45.846Z,101857.31
2022-09-07T08:27:16.464Z,101847.63
2022-09-07T08:29:47.421Z,101845.19
2022-09-07T08:32:15.160Z,101848.44
2022-09-07T08:34:42.751Z,101843.66
2022-09-07T08:37:11.019Z,101830.00
2022-09-07T08:39:38.530Z,101843.97
2022-09-07T08:42:37.930Z,101839.78
2022-09-07T08:45:11.697Z,101822.03
2022-09-07T08:47:48.597Z,101825.28
2022-09-07T08:50:22.292Z,101831.34
2022-09-07T08:52:50.646Z,101824.81
2022-09-07T08:55:39.647Z,101831.69
2022-09-07T08:58:27.054Z,101821.28
2022-09-07T09:06:43.603Z,101840.13
2022-09-07T09:09:37.940Z,101841.78
2022-09-07T09:12:33.297Z,101839.88
2022-09-07T09:15:48.066Z,101840.28
2022-09-07T09:18:30.610Z,101836.78
2022-09-07T09:21:00.324Z,101835.97
2022-09-07T09:23:34.770Z,101834.81
2022-09-07T09:26:26.959Z,101831.38
2022-09-07T09:28:55.369Z,101831.53
2022-09-07T09:31:28.496Z,101835.28
2022-09-07T09:34:23.975Z,101836.75
2022-09-07T09:36:56.166Z,101836.88
2022-09-07T09:39:35.152Z,101837.53
2022-09-07T09:42:13.404Z,101837.41
2022-09-07T09:44:42.473Z,101840.22
2022-09-07T09:47:49.024Z,101826.03
2022-09-07T09:53:37.497Z,101837.03
2022-09-07T09:56:05.562Z,101837.03
2022-09-07T10:01:36.294Z,101839.69
2022-09-07T10:04:25.549Z,101837.75
2022-09-07T10:07:15.285Z,101839.69
2022-09-07T10:09:54.944Z,101829.41
2022-09-07T10:12:36.351Z,101826.66
2022-09-07T10:15:24.818Z,101836.50
2022-09-07T10:17:52.747Z,101835.38
2022-09-07T10:20:35.380Z,101835.94
2022-09-07T10:23:04.973Z,101816.84
2022-09-07T10:25:46.301Z,101829.91
2022-09-07T10:28:21.301Z,101824.44
2022-09-07T10:31:21.430Z,101826.13
2022-09-07T10:37:05.735Z,101823.41
2022-09-07T10:40:03.394Z,101818.19
2022-09-07T10:42:39.494Z,101814.13
2022-09-07T10:45:19.420Z,101823.41
2022-09-07T10:47:53.475Z,101807.34
2022-09-07T10:50:33.688Z,101814.13
2022-09-07T10:53:40.044Z,101816.84
2022-09-07T10:56:15.069Z,101816.31
2022-09-07T10:59:20.839Z,101817.16
2022-09-07T11:01:56.869Z,101808.91
2022-09-07T11:04:44.622Z,101809.44
2022-09-07T11:07:25.592Z,101814.59
2022-09-07T11:10:34.047Z,101818.94
2022-09-07T11:13:05.714Z,101812.59
2022-09-07T11:15:49.010Z,101819.44
2022-09-07T11:18:39.348Z,101819.81
2022-09-07T11:21:56.118Z,101818.13
2022-09-07T11:24:27.705Z,101807.78
2022-09-07T11:27:00.775Z,101807.53
2022-09-07T11:29:43.590Z,101808.38
2022-09-07T11:32:33.101Z,101799.66
2022-09-07T11:35:12.654Z,101809.47
2022-09-07T11:37:52.346Z,101803.19
2022-09-07T11:40:31.782Z,101799.06
2022-09-07T11:43:43.187Z,101794.47
2022-09-07T11:46:26.949Z,101799.06
2022-09-07T11:48:58.744Z,101786.75
2022-09-07T11:51:45.291Z,101798.47
2022-09-07T11:54:43.341Z,101807.19
2022-09-07T11:57:37.065Z,101800.66
2022-09-07T12:00:13.911Z,101797.63
2022-09-07T12:02:59.483Z,101801.44
2022-09-07T12:06:06.685Z,101806.50
2022-09-07T12:08:43.770Z,101810.97
2022-09-07T12:11:14.213Z,101800.28
2022-09-07T12:14:12.177Z,101810.16
2022-09-07T12:17:07.062Z,101808.03
2022-09-07T12:19:34.928Z,101806.56
2022-09-07T12:22:02.541Z,101808.94
2022-09-07T12:24:49.286Z,101806.41
2022-09-07T12:27:22.977Z,101817.38
2022-09-07T12:30:13.508Z,101815.88
2022-09-07T12:32:55.300Z,101815.00
2022-09-07T12:35:26.914Z,101805.41
2022-09-07T12:38:16.702Z,101811.84
2022-09-07T12:41:09.786Z,101818.56
2022-09-07T12:43:43.396Z,101815.53
2022-09-07T12:46:41.339Z,101817.44
2022-09-07T12:49:36.793Z,101811.78
2022-09-07T12:52:15.675Z,101813.66
2022-09-07T12:55:26.168Z,101820.69
2022-09-07T12:58:12.810Z,101816.13
2022-09-07T13:01:14.646Z,101814.81
2022-09-07T13:04:41.391Z,101823.28
2022-09-07T13:07:24.461Z,101824.50
2022-09-07T13:10:00.109Z,101817.31
2022-09-07T13:12:57.097Z,101816.19
2022-09-07T13:15:43.846Z,101810.38
2022-09-07T13:18:27.938Z,101812.13
2022-09-07T13:21:08.035Z,101813.75
2022-09-07T13:23:40.210Z,101816.44
2022-09-07T13:26:13.477Z,101818.69
2022-09-07T13:28:40.965Z,101826.72
2022-09-07T13:31:30.312Z,101810.31
2022-09-07T13:33:57.970Z,101817.47
2022-09-07T13:36:37.094Z,101826.41
2022-09-07T13:39:09.830Z,101826.34
2022-09-07T13:41:43.701Z,101830.34
2022-09-07T13:44:31.029Z,101816.72
2022-09-07T13:47:21.345Z,101830.19
2022-09-07T13:50:18.525Z,101825.59
2022-09-07T13:52:58.191Z,101817.38
2022-09-07T13:55:39.419Z,101826.56
2022-09-07T13:58:18.177Z,101824.44
2022-09-07T14:00:58.727Z,101806.38
2022-09-07T14:03:30.502Z,101818.13
2022-09-07T14:06:27.039Z,101825.72
2022-09-07T14:09:04.530Z,101826.72
2022-09-07T14:11:52.768Z,101822.31
2022-09-07T14:14:33.342Z,101825.72
2022-09-07T14:17:00.882Z,101827.78
2022-09-07T14:19:45.504Z,101829.56
2022-09-07T14:22:21.364Z,101824.75
2022-09-07T14:24:54.789Z,101824.56
2022-09-07T14:27:26.864Z,101832.00
2022-09-07T14:29:54.407Z,101822.63
2022-09-07T14:32:25.288Z,101828.97
2022-09-07T14:34:53.073Z,101830.28
2022-09-07T14:37:23.107Z,101832.31
2022-09-07T14:39:53.007Z,101825.50
2022-09-07T14:42:24.599Z,101836.25
2022-09-07T14:45:19.375Z,101835.88
2022-09-07T14:47:49.335Z,101826.63
2022-09-07T14:50:23.994Z,101834.25
2022-09-07T14:55:44.959Z,101830.59
2022-09-07T14:58:15.094Z,101840.34
2022-09-07T15:00:45.974Z,101834.25
2022-09-07T15:03:33.181Z,101833.53
2022-09-07T15:06:02.712Z,101836.34
2022-09-07T15:08:42.698Z,101839.41
2022-09-07T15:11:38.982Z,101839.25
2022-09-07T15:14:18.496Z,101840.66
2022-09-07T15:19:47.349Z,101843.44
2022-09-07T15:22:23.831Z,101848.47
2022-09-07T15:24:51.362Z,101848.81
2022-09-07T15:27:29.204Z,101849.09
2022-09-07T15:29:57.762Z,101851.31
2022-09-07T15:32:25.289Z,101850.53
2022-09-07T15:34:52.763Z,101855.81
2022-09-07T15:40:29.357Z,101859.72
2022-09-07T15:43:00.335Z,101859.44
2022-09-07T15:45:28.272Z,101866.19
2022-09-07T15:47:56.592Z,101864.84
2022-09-07T15:50:24.048Z,101870.06
2022-09-07T15:52:52.114Z,101872.63
2022-09-07T15:55:19.537Z,101878.66
2022-09-07T15:57:49.309Z,101878.53
2022-09-07T16:00:18.197Z,101891.00
2022-09-07T16:03:05.437Z,101893.78
2022-09-07T16:05:33.933Z,101890.91
2022-09-07T16:10:55.807Z,101893.69
2022-09-07T16:13:33.093Z,101897.88
2022-09-07T16:16:00.653Z,101907.66
2022-09-07T16:18:31.291Z,101910.19
2022-09-07T16:21:13.833Z,101920.56
2022-09-07T16:23:49.044Z,101920.63
2022-09-07T16:26:18.452Z,101918.56
2022-09-07T16:28:48.891Z,101919.44
2022-09-07T16:31:22.267Z,101923.00
2022-09-07T16:33:50.169Z,101916.63
2022-09-07T16:36:19.004Z,101923.69
2022-09-07T16:38:48.801Z,101933.25
2022-09-07T16:41:26.704Z,101929.53
2022-09-07T16:43:54.730Z,101927.28
2022-09-07T16:46:25.096Z,101930.41
2022-09-07T16:48:53.209Z,101933.31
2022-09-07T16:51:22.886Z,101944.69
2022-09-07T16:53:53.190Z,101951.56
2022-09-07T16:56:23.941Z,101942.88
2022-09-07T16:58:57.023Z,101946.19
2022-09-07T17:01:28.632Z,101945.59
2022-09-07T17:03:56.705Z,101942.31
2022-09-07T17:06:26.928Z,101943.53
2022-09-07T17:08:55.009Z,101950.38
2022-09-07T17:11:28.039Z,101942.75
2022-09-07T17:13:57.699Z,101944.81
2022-09-07T17:16:28.245Z,101943.16
2022-09-07T17:21:47.492Z,101954.56
2022-09-07T17:24:14.981Z,101950.41
2022-09-07T17:26:42.956Z,101949.59
2022-09-07T17:29:13.193Z,101948.34
2022-09-07T17:34:30.220Z,101953.75
2022-09-07T17:36:57.936Z,101959.53
2022-09-07T17:39:25.391Z,101955.84
2022-09-07T17:41:53.101Z,101961.22
2022-09-07T17:44:22.775Z,101953.78
2022-09-07T17:46:50.209Z,101957.94
2022-09-07T17:49:17.996Z,101951.34
2022-09-07T17:51:46.295Z,101952.81
2022-09-07T17:54:16.057Z,101953.63
2022-09-07T17:56:44.334Z,101950.13
2022-09-07T18:02:02.265Z,101954.66
2022-09-07T18:04:30.466Z,101956.31
2022-09-07T18:06:58.022Z,101947.63
2022-09-07T18:09:25.625Z,101950.94
2022-09-07T18:11:55.543Z,101961.69
2022-09-07T18:14:23.205Z,101954.25
2022-09-07T18:16:51.288Z,101960.44
2022-09-07T18:19:19.588Z,101962.09
2022-09-07T18:21:48.340Z,101963.50
2022-09-07T18:24:22.496Z,101962.91
2022-09-07T18:26:52.655Z,101962.91
2022-09-07T18:29:33.500Z,101964.78
2022-09-07T18:32:07.466Z,101968.69
2022-09-07T18:34:37.305Z,101972.16
2022-09-07T18:37:05.491Z,101962.69
2022-09-07T18:39:33.735Z,101966.59
2022-09-07T18:42:01.575Z,101968.66
2022-09-07T18:47:27.899Z,101965.75
2022-09-07T18:49:56.149Z,101972.53
2022-09-07T18:55:12.060Z,101964.47
2022-09-07T18:57:39.626Z,101966.91
2022-09-07T19:00:09.756Z,101975.16
2022-09-07T19:02:37.795Z,101976.81
2022-09-07T19:07:53.439Z,101981.56
2022-09-07T19:10:20.985Z,101982.19
2022-09-07T19:12:48.482Z,101979.69
2022-09-07T19:15:16.025Z,101989.34
2022-09-07T19:17:43.640Z,101986.47
2022-09-07T19:20:11.282Z,101990.38
2022-09-07T19:22:39.421Z,101984.56
2022-09-07T19:25:07.209Z,101981.47
2022-09-07T19:27:34.803Z,101989.91
2022-09-07T19:30:02.424Z,101990.94
2022-09-07T19:32:31.052Z,101989.47
2022-09-07T19:34:58.563Z,101992.38
2022-09-07T19:37:29.179Z,101993.97
2022-09-07T19:39:57.024Z,102001.00
2022-09-07T19:42:25.673Z,101999.34
2022-09-07T19:44:54.825Z,102001.38
2022-09-07T19:47:23.539Z,101998.91
2022-09-07T19:49:52.466Z,102005.69
2022-09-07T19:52:20.058Z,102005.06
2022-09-07T19:54:47.515Z,102005.25
2022-09-07T19:57:15.014Z,102003.41
2022-09-07T19:59:42.495Z,101995.75
2022-09-07T20:02:11.035Z,102001.53
2022-09-07T20:04:38.540Z,102006.44
2022-09-07T20:07:06.876Z,101998.78
2022-09-07T20:09:34.433Z,101994.69
2022-09-07T20:12:03.954Z,101998.75
2022-09-07T20:14:31.447Z,101992.97
2022-09-07T20:16:58.917Z,101994.16
2022-09-07T20:19:26.420Z,102007.97
2022-09-07T20:21:56.055Z,101995.78
2022-09-07T20:24:23.743Z,101997.66
2022-09-07T20:26:51.993Z,101996.81
2022-09-07T20:29:28.605Z,101994.31
2022-09-07T20:31:59.053Z,102004.03
2022-09-07T20:34:28.218Z,101996.19
2022-09-07T20:36:57.158Z,101996.19
2022-09-07T20:39:25.247Z,101991.66
2022-09-07T20:41:52.853Z,101996.81
2022-09-07T20:44:20.320Z,101995.34
2022-09-07T20:46:50.534Z,101998.22
2022-09-07T20:49:18.015Z,102002.78
2022-09-07T20:51:45.521Z,102008.50
2022-09-07T20:54:13.067Z,102000.66
2022-09-07T20:56:40.584Z,102001.88
2022-09-07T20:59:08.116Z,102001.25
2022-09-07T21:01:35.803Z,102007.00
2022-09-07T21:04:04.318Z,101996.28
2022-09-07T21:06:32.228Z,102009.69
2022-09-07T21:09:00.473Z,102010.94
2022-09-07T21:11:34.324Z,101999.81
2022-09-07T21:14:06.437Z,102012.97
2022-09-07T21:16:35.472Z,102003.25
2022-09-07T21:19:05.842Z,102011.47
2022-09-07T21:21:39.489Z,102012.88
2022-09-07T21:24:14.869Z,102012.63
2022-09-07T21:26:42.285Z,102010.31
2022-09-07T21:29:15.944Z,102011.91
2022-09-07T21:31:43.480Z,102016.44
2022-09-07T21:34:11.382Z,102011.44
2022-09-07T21:36:38.795Z,102010.84
2022-09-07T21:39:09.494Z,102012.59
2022-09-07T21:41:38.894Z,102013.63
2022-09-07T21:44:06.450Z,102011.97
2022-09-07T21:46:34.430Z,102013.38
2022-09-07T21:49:02.353Z,102016.44
2022-09-07T21:51:31.958Z,102026.50
2022-09-07T21:54:00.708Z,102026.06
2022-09-07T21:56:32.335Z,102027.47
2022-09-07T21:59:01.901Z,102014.44
2022-09-07T22:01:30.852Z,102023.94
2022-09-07T22:04:07.174Z,102013.63
2022-09-07T22:06:35.125Z,102014.84
2022-09-07T22:09:05.160Z,102019.28
2022-09-07T22:11:32.813Z,102021.78
2022-09-07T22:14:03.278Z,102026.94
2022-09-07T22:16:34.421Z,102015.41
2022-09-07T22:19:02.003Z,102024.63
2022-09-07T22:21:30.668Z,102014.91
2022-09-07T22:24:00.710Z,102020.06
2022-09-07T22:26:31.017Z,102021.91
2022-09-07T22:28:59.470Z,102018.41
2022-09-07T22:31:32.346Z,102011.19
2022-09-07T22:34:02.179Z,102015.72
2022-09-07T22:36:29.573Z,102008.25
2022-09-07T22:38:59.134Z,102016.41
2022-09-07T22:41:32.178Z,102005.81
2022-09-07T22:44:00.124Z,102007.59
2022-09-07T22:46:30.363Z,102008.06
2022-09-07T22:48:59.085Z,102007.53
2022-09-07T22:51:27.688Z,102001.25
2022-09-07T22:53:55.590Z,102004.94
2022-09-07T22:56:25.942Z,102004.94
2022-09-07T22:58:59.027Z,102008.00
2022-09-07T23:01:27.862Z,102012.41
2022-09-07T23:03:56.658Z,102004.69
2022-09-07T23:06:29.748Z,102007.16
2022-09-07T23:08:59.219Z,102012.25
2022-09-07T23:11:27.399Z,102018.31
2022-09-07T23:13:57.296Z,102009.72
2022-09-07T23:16:26.243Z,102015.38
2022-09-07T23:18:54.754Z,102013.72
2022-09-07T23:21:22.447Z,102019.06
2022-09-07T23:23:54.838Z,102015.06
2022-09-07T23:26:23.665Z,102016.09
2022-09-07T23:28:53.025Z,102014.25
2022-09-07T23:31:21.463Z,102020.88
2022-09-07T23:33:49.710Z,102020.88
2022-09-07T23:36:20.893Z,102020.06
2022-09-07T23:38:55.020Z,102019.41
2022-09-07T23:41:23.607Z,102023.44
2022-09-07T23:43:52.306Z,102019.94
2022-09-07T23:46:20.167Z,102029.78
2022-09-07T23:48:48.464Z,102024.69
2022-09-07T23:51:21.255Z,102034.44
2022-09-07T23:53:53.036Z,102034.34
2022-09-07T23:56:22.688Z,102028.69
2022-09-07T23:58:50.220Z,102033.75
